sensor_id;sensor_type;location;lat;lon;timestamp;pressure;altitude;pressure_sealevel;temperature;humidity
74370;BME280;62805;44.644;10.942;2023-05-07T00:01:14;101047.47;;;17.92;79.54
74370;BME280;62805;44.644;10.942;2023-05-07T00:03:40;101067.91;;;17.94;79.60
74370;BME280;62805;44.644;10.942;2023-05-07T00:06:05;101072.16;;;17.83;79.88
74370;BME280;62805;44.644;10.942;2023-05-07T00:08:30;101064.81;;;17.82;80.05
74370;BME280;62805;44.644;10.942;2023-05-07T00:10:56;101060.78;;;17.83;80.36
74370;BME280;62805;44.644;10.942;2023-05-07T00:13:21;101054.09;;;17.79;80.21
74370;BME280;62805;44.644;10.942;2023-05-07T00:15:46;101055.09;;;17.83;80.35
74370;BME280;62805;44.644;10.942;2023-05-07T00:18:12;101053.03;;;17.75;80.64
74370;BME280;62805;44.644;10.942;2023-05-07T00:20:37;101054.53;;;17.59;81.52
74370;BME280;62805;44.644;10.942;2023-05-07T00:23:03;101048.22;;;17.62;81.79
74370;BME280;62805;44.644;10.942;2023-05-07T00:25:28;101046.16;;;17.54;81.58
74370;BME280;62805;44.644;10.942;2023-05-07T00:27:53;101053.09;;;17.48;81.59
74370;BME280;62805;44.644;10.942;2023-05-07T00:30:19;101047.41;;;17.48;81.79
74370;BME280;62805;44.644;10.942;2023-05-07T00:32:44;101061.50;;;17.39;82.14
74370;BME280;62805;44.644;10.942;2023-05-07T00:35:10;101049.53;;;17.42;82.25
74370;BME280;62805;44.644;10.942;2023-05-07T00:37:36;101054.34;;;17.42;81.89
74370;BME280;62805;44.644;10.942;2023-05-07T00:40:01;101047.41;;;17.34;82.01
74370;BME280;62805;44.644;10.942;2023-05-07T00:42:30;101051.44;;;17.33;82.42
74370;BME280;62805;44.644;10.942;2023-05-07T00:44:57;101051.94;;;17.22;82.69
74370;BME280;62805;44.644;10.942;2023-05-07T00:47:23;101061.94;;;17.06;83.02
74370;BME280;62805;44.644;10.942;2023-05-07T00:49:49;101066.59;;;17.15;82.87
74370;BME280;62805;44.644;10.942;2023-05-07T00:52:16;101067.97;;;17.18;82.94
74370;BME280;62805;44.644;10.942;2023-05-07T00:54:42;101074.16;;;17.20;83.18
74370;BME280;62805;44.644;10.942;2023-05-07T00:57:09;101068.69;;;17.10;83.22
74370;BME280;62805;44.644;10.942;2023-05-07T00:59:36;101037.69;;;16.86;83.32
74370;BME280;62805;44.644;10.942;2023-05-07T01:02:01;101052.59;;;17.05;83.38
74370;BME280;62805;44.644;10.942;2023-05-07T01:04:27;101068.91;;;17.13;83.23
74370;BME280;62805;44.644;10.942;2023-05-07T01:06:55;101063.88;;;16.97;83.42
74370;BME280;62805;44.644;10.942;2023-05-07T01:09:22;101065.72;;;17.15;83.25
74370;BME280;62805;44.644;10.942;2023-05-07T01:11:50;101064.38;;;17.12;82.87
74370;BME280;62805;44.644;10.942;2023-05-07T01:14:16;101064.28;;;17.04;82.19
74370;BME280;62805;44.644;10.942;2023-05-07T01:16:42;101067.41;;;16.89;82.46
74370;BME280;62805;44.644;10.942;2023-05-07T01:19:08;101058.38;;;16.87;82.93
74370;BME280;62805;44.644;10.942;2023-05-07T01:21:36;101058.78;;;16.80;83.11
74370;BME280;62805;44.644;10.942;2023-05-07T01:24:02;101068.47;;;16.93;82.36
74370;BME280;62805;44.644;10.942;2023-05-07T01:26:28;101069.53;;;16.97;81.64
74370;BME280;62805;44.644;10.942;2023-05-07T01:28:54;101067.22;;;16.71;82.42
74370;BME280;62805;44.644;10.942;2023-05-07T01:31:20;101084.00;;;16.54;82.77
74370;BME280;62805;44.644;10.942;2023-05-07T01:33:48;101086.31;;;16.66;82.35
74370;BME280;62805;44.644;10.942;2023-05-07T01:36:15;101090.50;;;16.55;81.25
74370;BME280;62805;44.644;10.942;2023-05-07T01:38:43;101075.25;;;16.19;82.10
74370;BME280;62805;44.644;10.942;2023-05-07T01:41:08;101082.84;;;16.23;82.38
74370;BME280;62805;44.644;10.942;2023-05-07T01:43:34;101079.03;;;16.14;83.13
74370;BME280;62805;44.644;10.942;2023-05-07T01:46:00;101079.34;;;16.13;83.27
74370;BME280;62805;44.644;10.942;2023-05-07T01:48:26;101087.97;;;16.21;83.34
74370;BME280;62805;44.644;10.942;2023-05-07T01:50:52;101081.56;;;16.29;82.77
74370;BME280;62805;44.644;10.942;2023-05-07T01:53:17;101081.16;;;16.36;82.58
74370;BME280;62805;44.644;10.942;2023-05-07T01:55:43;101086.81;;;16.22;82.92
74370;BME280;62805;44.644;10.942;2023-05-07T01:58:08;101081.56;;;16.29;83.00
74370;BME280;62805;44.644;10.942;2023-05-07T02:00:34;101086.63;;;16.32;82.80
74370;BME280;62805;44.644;10.942;2023-05-07T02:02:59;101083.88;;;16.27;82.54
74370;BME280;62805;44.644;10.942;2023-05-07T02:05:24;101082.03;;;16.36;82.31
74370;BME280;62805;44.644;10.942;2023-05-07T02:07:50;101078.78;;;16.11;83.38
74370;BME280;62805;44.644;10.942;2023-05-07T02:10:15;101085.13;;;16.21;83.30
74370;BME280;62805;44.644;10.942;2023-05-07T02:12:40;101075.88;;;16.16;83.27
74370;BME280;62805;44.644;10.942;2023-05-07T02:15:06;101080.50;;;16.25;83.06
74370;BME280;62805;44.644;10.942;2023-05-07T02:17:31;101077.19;;;16.05;83.52
74370;BME280;62805;44.644;10.942;2023-05-07T02:19:58;101081.09;;;16.09;83.80
74370;BME280;62805;44.644;10.942;2023-05-07T02:22:23;101070.94;;;15.89;84.24
74370;BME280;62805;44.644;10.942;2023-05-07T02:24:49;101077.41;;;16.08;83.71
74370;BME280;62805;44.644;10.942;2023-05-07T02:27:14;101078.44;;;15.80;84.57
74370;BME280;62805;44.644;10.942;2023-05-07T02:29:40;101083.13;;;15.90;84.62
74370;BME280;62805;44.644;10.942;2023-05-07T02:32:05;101082.53;;;16.06;84.19
74370;BME280;62805;44.644;10.942;2023-05-07T02:34:30;101076.28;;;16.09;83.92
74370;BME280;62805;44.644;10.942;2023-05-07T02:36:56;101073.91;;;15.98;84.06
74370;BME280;62805;44.644;10.942;2023-05-07T02:39:21;101074.75;;;15.98;84.09
74370;BME280;62805;44.644;10.942;2023-05-07T02:41:47;101066.97;;;15.90;84.61
74370;BME280;62805;44.644;10.942;2023-05-07T02:44:12;101082.50;;;15.93;84.51
74370;BME280;62805;44.644;10.942;2023-05-07T02:46:37;101081.63;;;15.92;84.26
74370;BME280;62805;44.644;10.942;2023-05-07T02:49:03;101078.28;;;15.90;84.54
74370;BME280;62805;44.644;10.942;2023-05-07T02:51:29;101078.59;;;15.70;85.44
74370;BME280;62805;44.644;10.942;2023-05-07T02:53:55;101083.81;;;15.63;86.04
74370;BME280;62805;44.644;10.942;2023-05-07T02:56:21;101084.88;;;15.67;85.99
74370;BME280;62805;44.644;10.942;2023-05-07T02:58:46;101093.00;;;15.74;85.92
74370;BME280;62805;44.644;10.942;2023-05-07T03:01:11;101088.25;;;15.69;85.80
74370;BME280;62805;44.644;10.942;2023-05-07T03:03:39;101092.84;;;15.65;86.07
74370;BME280;62805;44.644;10.942;2023-05-07T03:06:05;101089.63;;;15.53;86.79
74370;BME280;62805;44.644;10.942;2023-05-07T03:08:30;101094.59;;;15.61;86.78
74370;BME280;62805;44.644;10.942;2023-05-07T03:10:56;101081.19;;;15.48;86.89
74370;BME280;62805;44.644;10.942;2023-05-07T03:13:21;101090.00;;;15.65;86.40
74370;BME280;62805;44.644;10.942;2023-05-07T03:15:46;101096.06;;;15.77;86.17
74370;BME280;62805;44.644;10.942;2023-05-07T03:18:12;101089.19;;;15.83;86.17
74370;BME280;62805;44.644;10.942;2023-05-07T03:20:37;101096.06;;;15.77;85.86
74370;BME280;62805;44.644;10.942;2023-05-07T03:23:03;101100.50;;;15.83;85.95
74370;BME280;62805;44.644;10.942;2023-05-07T03:25:28;101095.44;;;15.80;86.08
74370;BME280;62805;44.644;10.942;2023-05-07T03:27:55;101101.88;;;15.67;86.36
74370;BME280;62805;44.644;10.942;2023-05-07T03:30:21;101096.00;;;15.63;86.38
74370;BME280;62805;44.644;10.942;2023-05-07T03:32:46;101105.38;;;15.59;86.93
74370;BME280;62805;44.644;10.942;2023-05-07T03:35:12;101112.22;;;15.58;87.06
74370;BME280;62805;44.644;10.942;2023-05-07T03:37:38;101121.34;;;15.55;87.20
74370;BME280;62805;44.644;10.942;2023-05-07T03:40:04;101111.22;;;15.49;87.67
74370;BME280;62805;44.644;10.942;2023-05-07T03:42:29;101108.38;;;15.49;87.51
74370;BME280;62805;44.644;10.942;2023-05-07T03:44:55;101112.88;;;15.50;87.63
74370;BME280;62805;44.644;10.942;2023-05-07T03:47:20;101101.31;;;15.46;87.75
74370;BME280;62805;44.644;10.942;2023-05-07T03:49:46;101098.78;;;15.45;87.89
74370;BME280;62805;44.644;10.942;2023-05-07T03:52:11;101110.59;;;15.52;87.88
74370;BME280;62805;44.644;10.942;2023-05-07T03:54:36;101118.78;;;15.53;87.75
74370;BME280;62805;44.644;10.942;2023-05-07T03:57:02;101104.44;;;15.45;87.99
74370;BME280;62805;44.644;10.942;2023-05-07T03:59:27;101120.94;;;15.38;88.84
74370;BME280;62805;44.644;10.942;2023-05-07T04:01:53;101116.97;;;15.39;88.69
74370;BME280;62805;44.644;10.942;2023-05-07T04:04:18;101121.63;;;15.53;88.28
74370;BME280;62805;44.644;10.942;2023-05-07T04:06:43;101118.44;;;15.60;88.35
74370;BME280;62805;44.644;10.942;2023-05-07T04:09:09;101119.00;;;15.57;88.71
74370;BME280;62805;44.644;10.942;2023-05-07T04:11:35;101123.00;;;15.56;88.49
74370;BME280;62805;44.644;10.942;2023-05-07T04:14:01;101113.81;;;15.64;87.99
74370;BME280;62805;44.644;10.942;2023-05-07T04:16:26;101121.19;;;15.65;88.17
74370;BME280;62805;44.644;10.942;2023-05-07T04:18:51;101132.66;;;15.55;88.69
74370;BME280;62805;44.644;10.942;2023-05-07T04:21:20;101130.81;;;15.64;88.82
74370;BME280;62805;44.644;10.942;2023-05-07T04:23:49;101132.59;;;15.60;88.58
74370;BME280;62805;44.644;10.942;2023-05-07T04:26:15;101136.63;;;15.54;89.04
74370;BME280;62805;44.644;10.942;2023-05-07T04:28:41;101136.63;;;15.54;88.90
74370;BME280;62805;44.644;10.942;2023-05-07T04:31:06;101137.56;;;15.49;89.01
74370;BME280;62805;44.644;10.942;2023-05-07T04:33:32;101141.09;;;15.60;88.86
74370;BME280;62805;44.644;10.942;2023-05-07T04:36:01;101154.25;;;15.51;88.90
74370;BME280;62805;44.644;10.942;2023-05-07T04:38:28;101155.13;;;15.46;89.09
74370;BME280;62805;44.644;10.942;2023-05-07T04:40:54;101159.06;;;15.50;89.25
74370;BME280;62805;44.644;10.942;2023-05-07T04:43:20;101157.56;;;15.58;89.05
74370;BME280;62805;44.644;10.942;2023-05-07T04:45:46;101157.00;;;15.56;88.74
74370;BME280;62805;44.644;10.942;2023-05-07T04:48:11;101157.78;;;15.61;88.65
74370;BME280;62805;44.644;10.942;2023-05-07T04:50:37;101160.84;;;15.65;89.05
74370;BME280;62805;44.644;10.942;2023-05-07T04:53:02;101171.56;;;15.68;88.97
74370;BME280;62805;44.644;10.942;2023-05-07T04:55:28;101167.00;;;15.72;88.96
74370;BME280;62805;44.644;10.942;2023-05-07T04:57:53;101164.84;;;15.83;88.95
74370;BME280;62805;44.644;10.942;2023-05-07T05:00:18;101166.22;;;15.85;88.17
74370;BME280;62805;44.644;10.942;2023-05-07T05:02:45;101175.25;;;15.87;88.32
74370;BME280;62805;44.644;10.942;2023-05-07T05:05:10;101173.59;;;15.86;88.20
74370;BME280;62805;44.644;10.942;2023-05-07T05:07:36;101170.75;;;15.86;88.16
74370;BME280;62805;44.644;10.942;2023-05-07T05:10:02;101180.13;;;15.87;88.16
74370;BME280;62805;44.644;10.942;2023-05-07T05:12:29;101173.81;;;15.90;87.92
74370;BME280;62805;44.644;10.942;2023-05-07T05:14:54;101179.09;;;15.96;87.81
74370;BME280;62805;44.644;10.942;2023-05-07T05:17:19;101184.16;;;15.99;87.33
74370;BME280;62805;44.644;10.942;2023-05-07T05:19:45;101175.09;;;15.97;87.26
74370;BME280;62805;44.644;10.942;2023-05-07T05:22:10;101177.03;;;16.02;87.57
74370;BME280;62805;44.644;10.942;2023-05-07T05:24:35;101180.66;;;16.07;87.54
74370;BME280;62805;44.644;10.942;2023-05-07T05:27:01;101181.09;;;16.14;86.83
74370;BME280;62805;44.644;10.942;2023-05-07T05:29:27;101192.75;;;16.13;86.76
74370;BME280;62805;44.644;10.942;2023-05-07T05:31:52;101189.59;;;16.33;86.46
74370;BME280;62805;44.644;10.942;2023-05-07T05:34:17;101187.75;;;16.42;86.17
74370;BME280;62805;44.644;10.942;2023-05-07T05:36:45;101187.13;;;16.45;85.67
74370;BME280;62805;44.644;10.942;2023-05-07T05:39:10;101182.88;;;16.47;85.12
74370;BME280;62805;44.644;10.942;2023-05-07T05:41:35;101184.47;;;16.53;85.38
74370;BME280;62805;44.644;10.942;2023-05-07T05:44:01;101181.53;;;16.58;84.91
74370;BME280;62805;44.644;10.942;2023-05-07T05:46:26;101179.84;;;16.57;84.37
74370;BME280;62805;44.644;10.942;2023-05-07T05:48:51;101181.75;;;16.62;84.88
74370;BME280;62805;44.644;10.942;2023-05-07T05:51:17;101165.56;;;16.62;84.45
74370;BME280;62805;44.644;10.942;2023-05-07T05:53:42;101190.56;;;16.60;84.60
74370;BME280;62805;44.644;10.942;2023-05-07T05:56:08;101186.75;;;16.84;83.31
74370;BME280;62805;44.644;10.942;2023-05-07T05:58:33;101193.63;;;16.83;83.00
74370;BME280;62805;44.644;10.942;2023-05-07T06:00:59;101191.66;;;16.97;82.92
74370;BME280;62805;44.644;10.942;2023-05-07T06:03:24;101194.66;;;16.87;82.87
74370;BME280;62805;44.644;10.942;2023-05-07T06:05:49;101183.03;;;17.02;82.10
74370;BME280;62805;44.644;10.942;2023-05-07T06:08:15;101184.63;;;17.21;81.41
74370;BME280;62805;44.644;10.942;2023-05-07T06:10:40;101183.69;;;17.26;80.97
74370;BME280;62805;44.644;10.942;2023-05-07T06:13:06;101185.69;;;17.25;81.29
74370;BME280;62805;44.644;10.942;2023-05-07T06:15:31;101185.34;;;17.27;80.55
74370;BME280;62805;44.644;10.942;2023-05-07T06:17:57;101188.03;;;17.50;80.25
74370;BME280;62805;44.644;10.942;2023-05-07T06:20:22;101182.56;;;17.54;79.49
74370;BME280;62805;44.644;10.942;2023-05-07T06:22:48;101185.91;;;17.83;79.18
74370;BME280;62805;44.644;10.942;2023-05-07T06:25:14;101192.00;;;17.90;78.13
74370;BME280;62805;44.644;10.942;2023-05-07T06:27:39;101193.06;;;17.94;77.47
74370;BME280;62805;44.644;10.942;2023-05-07T06:30:05;101193.66;;;18.05;76.94
74370;BME280;62805;44.644;10.942;2023-05-07T06:32:31;101192.56;;;18.14;76.52
74370;BME280;62805;44.644;10.942;2023-05-07T06:34:56;101200.13;;;18.32;75.84
74370;BME280;62805;44.644;10.942;2023-05-07T06:37:21;101197.56;;;18.44;75.67
74370;BME280;62805;44.644;10.942;2023-05-07T06:39:47;101194.66;;;18.58;74.40
74370;BME280;62805;44.644;10.942;2023-05-07T06:42:12;101195.19;;;18.60;73.86
74370;BME280;62805;44.644;10.942;2023-05-07T06:44:37;101190.06;;;18.70;71.34
74370;BME280;62805;44.644;10.942;2023-05-07T06:47:03;101191.91;;;18.66;71.86
74370;BME280;62805;44.644;10.942;2023-05-07T06:49:28;101191.25;;;18.47;71.98
74370;BME280;62805;44.644;10.942;2023-05-07T06:51:53;101174.38;;;18.37;71.89
74370;BME280;62805;44.644;10.942;2023-05-07T06:54:19;101200.81;;;18.51;71.63
74370;BME280;62805;44.644;10.942;2023-05-07T06:56:45;101195.25;;;18.68;72.02
74370;BME280;62805;44.644;10.942;2023-05-07T06:59:10;101202.22;;;18.84;71.45
74370;BME280;62805;44.644;10.942;2023-05-07T07:01:35;101193.34;;;18.86;71.82
74370;BME280;62805;44.644;10.942;2023-05-07T07:04:01;101202.22;;;18.84;71.13
74370;BME280;62805;44.644;10.942;2023-05-07T07:06:26;101186.56;;;18.96;71.21
74370;BME280;62805;44.644;10.942;2023-05-07T07:08:52;101195.50;;;19.03;71.56
74370;BME280;62805;44.644;10.942;2023-05-07T07:11:17;101191.78;;;19.02;71.23
74370;BME280;62805;44.644;10.942;2023-05-07T07:13:42;101196.09;;;19.22;70.98
74370;BME280;62805;44.644;10.942;2023-05-07T07:16:08;101196.56;;;19.15;70.79
74370;BME280;62805;44.644;10.942;2023-05-07T07:18:33;101199.31;;;19.29;70.46
74370;BME280;62805;44.644;10.942;2023-05-07T07:20:59;101190.31;;;19.35;69.75
74370;BME280;62805;44.644;10.942;2023-05-07T07:23:24;101193.56;;;19.20;70.45
74370;BME280;62805;44.644;10.942;2023-05-07T07:25:50;101192.44;;;19.30;70.85
74370;BME280;62805;44.644;10.942;2023-05-07T07:28:17;101182.09;;;19.34;70.85
74370;BME280;62805;44.644;10.942;2023-05-07T07:30:42;101186.03;;;19.55;70.46
74370;BME280;62805;44.644;10.942;2023-05-07T07:33:07;101185.16;;;19.46;69.91
74370;BME280;62805;44.644;10.942;2023-05-07T07:35:33;101185.69;;;19.48;70.39
74370;BME280;62805;44.644;10.942;2023-05-07T07:37:58;101190.56;;;19.56;69.47
74370;BME280;62805;44.644;10.942;2023-05-07T07:40:24;101196.94;;;19.53;69.91
74370;BME280;62805;44.644;10.942;2023-05-07T07:42:50;101196.00;;;19.66;69.59
74370;BME280;62805;44.644;10.942;2023-05-07T07:45:15;101193.88;;;19.88;69.05
74370;BME280;62805;44.644;10.942;2023-05-07T07:47:41;101183.31;;;19.89;69.03
74370;BME280;62805;44.644;10.942;2023-05-07T07:50:07;101195.31;;;20.17;68.87
74370;BME280;62805;44.644;10.942;2023-05-07T07:52:32;101200.81;;;20.13;67.83
74370;BME280;62805;44.644;10.942;2023-05-07T07:54:58;101191.63;;;20.33;67.08
74370;BME280;62805;44.644;10.942;2023-05-07T07:57:23;101199.88;;;20.43;67.03
74370;BME280;62805;44.644;10.942;2023-05-07T07:59:49;101201.19;;;20.37;67.02
74370;BME280;62805;44.644;10.942;2023-05-07T08:02:15;101205.88;;;20.16;67.12
74370;BME280;62805;44.644;10.942;2023-05-07T08:04:40;101208.22;;;20.31;67.15
74370;BME280;62805;44.644;10.942;2023-05-07T08:07:06;101210.78;;;20.41;66.03
74370;BME280;62805;44.644;10.942;2023-05-07T08:09:32;101210.78;;;20.58;67.17
74370;BME280;62805;44.644;10.942;2023-05-07T08:11:57;101208.25;;;20.82;64.90
74370;BME280;62805;44.644;10.942;2023-05-07T08:14:23;101202.81;;;20.98;66.10
74370;BME280;62805;44.644;10.942;2023-05-07T08:16:48;101207.22;;;20.95;65.04
74370;BME280;62805;44.644;10.942;2023-05-07T08:19:14;101213.28;;;21.02;65.33
74370;BME280;62805;44.644;10.942;2023-05-07T08:21:40;101197.44;;;21.14;64.22
74370;BME280;62805;44.644;10.942;2023-05-07T08:24:06;101207.53;;;21.20;64.69
74370;BME280;62805;44.644;10.942;2023-05-07T08:26:31;101200.00;;;20.89;64.47
74370;BME280;62805;44.644;10.942;2023-05-07T08:28:56;101199.28;;;21.27;64.47
74370;BME280;62805;44.644;10.942;2023-05-07T08:31:22;101187.41;;;20.90;64.19
74370;BME280;62805;44.644;10.942;2023-05-07T08:33:47;101201.88;;;21.02;63.25
74370;BME280;62805;44.644;10.942;2023-05-07T08:36:12;101199.97;;;21.15;64.21
74370;BME280;62805;44.644;10.942;2023-05-07T08:38:38;101202.28;;;21.30;63.96
74370;BME280;62805;44.644;10.942;2023-05-07T08:41:05;101169.31;;;21.24;64.40
74370;BME280;62805;44.644;10.942;2023-05-07T08:43:32;101196.25;;;21.61;64.31
74370;BME280;62805;44.644;10.942;2023-05-07T08:46:01;101196.47;;;21.56;62.37
74370;BME280;62805;44.644;10.942;2023-05-07T08:48:30;101190.19;;;21.71;61.58
74370;BME280;62805;44.644;10.942;2023-05-07T08:50:58;101189.63;;;21.77;63.04
74370;BME280;62805;44.644;10.942;2023-05-07T08:53:24;101197.00;;;21.87;63.70
74370;BME280;62805;44.644;10.942;2023-05-07T08:55:49;101194.19;;;21.70;63.17
74370;BME280;62805;44.644;10.942;2023-05-07T08:58:15;101187.72;;;21.52;60.46
74370;BME280;62805;44.644;10.942;2023-05-07T09:00:41;101184.66;;;21.57;62.36
74370;BME280;62805;44.644;10.942;2023-05-07T09:03:07;101181.41;;;21.76;63.47
74370;BME280;62805;44.644;10.942;2023-05-07T09:05:32;101187.97;;;22.05;64.01
74370;BME280;62805;44.644;10.942;2023-05-07T09:08:02;101180.31;;;21.89;61.98
74370;BME280;62805;44.644;10.942;2023-05-07T09:10:28;101189.25;;;21.87;61.18
74370;BME280;62805;44.644;10.942;2023-05-07T09:12:54;101161.53;;;21.79;61.74
74370;BME280;62805;44.644;10.942;2023-05-07T09:15:19;101181.31;;;21.93;62.38
74370;BME280;62805;44.644;10.942;2023-05-07T09:17:45;101187.63;;;22.07;62.19
74370;BME280;62805;44.644;10.942;2023-05-07T09:20:10;101180.78;;;22.20;62.10
74370;BME280;62805;44.644;10.942;2023-05-07T09:22:37;101185.69;;;22.40;62.34
74370;BME280;62805;44.644;10.942;2023-05-07T09:25:03;101169.50;;;22.44;59.86
74370;BME280;62805;44.644;10.942;2023-05-07T09:27:29;101182.22;;;22.55;59.30
74370;BME280;62805;44.644;10.942;2023-05-07T09:29:55;101184.19;;;22.63;58.40
74370;BME280;62805;44.644;10.942;2023-05-07T09:32:20;101184.59;;;22.53;57.06
74370;BME280;62805;44.644;10.942;2023-05-07T09:34:46;101183.09;;;22.47;57.15
74370;BME280;62805;44.644;10.942;2023-05-07T09:37:13;101177.03;;;22.49;55.96
74370;BME280;62805;44.644;10.942;2023-05-07T09:39:47;101171.16;;;22.45;54.21
74370;BME280;62805;44.644;10.942;2023-05-07T09:42:12;101178.69;;;22.58;53.35
74370;BME280;62805;44.644;10.942;2023-05-07T09:44:40;101171.03;;;22.62;53.18
74370;BME280;62805;44.644;10.942;2023-05-07T09:47:06;101175.91;;;22.82;52.99
74370;BME280;62805;44.644;10.942;2023-05-07T09:49:34;101168.34;;;22.98;51.87
74370;BME280;62805;44.644;10.942;2023-05-07T09:52:02;101167.13;;;22.99;48.63
74370;BME280;62805;44.644;10.942;2023-05-07T09:54:29;101165.94;;;23.00;47.77
74370;BME280;62805;44.644;10.942;2023-05-07T09:56:55;101170.97;;;23.03;46.86
74370;BME280;62805;44.644;10.942;2023-05-07T09:59:21;101168.00;;;23.12;47.62
74370;BME280;62805;44.644;10.942;2023-05-07T10:01:48;101172.16;;;23.02;49.16
74370;BME280;62805;44.644;10.942;2023-05-07T10:04:14;101168.13;;;23.15;50.14
74370;BME280;62805;44.644;10.942;2023-05-07T10:06:40;101169.53;;;23.09;49.09
74370;BME280;62805;44.644;10.942;2023-05-07T10:09:06;101166.47;;;23.14;48.86
74370;BME280;62805;44.644;10.942;2023-05-07T10:11:33;101167.47;;;23.43;45.42
74370;BME280;62805;44.644;10.942;2023-05-07T10:13:59;101170.34;;;23.43;45.57
74370;BME280;62805;44.644;10.942;2023-05-07T10:16:27;101172.06;;;23.56;45.80
74370;BME280;62805;44.644;10.942;2023-05-07T10:18:53;101165.84;;;23.54;47.55
74370;BME280;62805;44.644;10.942;2023-05-07T10:21:21;101168.47;;;23.71;47.22
74370;BME280;62805;44.644;10.942;2023-05-07T10:23:50;101174.09;;;23.91;47.23
74370;BME280;62805;44.644;10.942;2023-05-07T10:26:18;101168.25;;;23.88;45.92
74370;BME280;62805;44.644;10.942;2023-05-07T10:28:49;101163.91;;;23.94;46.75
74370;BME280;62805;44.644;10.942;2023-05-07T10:33:51;101158.19;;;23.82;43.80
74370;BME280;62805;44.644;10.942;2023-05-07T10:36:18;101146.81;;;23.85;42.80
74370;BME280;62805;44.644;10.942;2023-05-07T10:38:44;101153.16;;;23.79;43.46
74370;BME280;62805;44.644;10.942;2023-05-07T10:41:11;101146.44;;;23.99;44.87
74370;BME280;62805;44.644;10.942;2023-05-07T10:43:40;101148.97;;;24.00;46.79
74370;BME280;62805;44.644;10.942;2023-05-07T10:46:17;101155.88;;;24.23;47.23
74370;BME280;62805;44.644;10.942;2023-05-07T10:51:31;101145.84;;;24.57;47.22
74370;BME280;62805;44.644;10.942;2023-05-07T10:56:35;101134.66;;;24.40;42.88
74370;BME280;62805;44.644;10.942;2023-05-07T11:01:53;101142.47;;;24.27;41.53
74370;BME280;62805;44.644;10.942;2023-05-07T11:04:18;101145.41;;;24.43;41.82
74370;BME280;62805;44.644;10.942;2023-05-07T11:15:09;101137.22;;;24.69;41.39
74370;BME280;62805;44.644;10.942;2023-05-07T11:17:51;101138.25;;;24.77;41.08
74370;BME280;62805;44.644;10.942;2023-05-07T11:20:17;101141.03;;;24.73;41.09
74370;BME280;62805;44.644;10.942;2023-05-07T11:22:43;101126.41;;;24.66;41.16
74370;BME280;62805;44.644;10.942;2023-05-07T11:25:08;101133.72;;;24.91;40.40
74370;BME280;62805;44.644;10.942;2023-05-07T11:27:34;101127.66;;;25.08;38.66
74370;BME280;62805;44.644;10.942;2023-05-07T11:29:59;101135.63;;;24.99;37.11
74370;BME280;62805;44.644;10.942;2023-05-07T11:32:29;101133.22;;;25.01;37.47
74370;BME280;62805;44.644;10.942;2023-05-07T11:34:57;101130.25;;;25.13;37.41
74370;BME280;62805;44.644;10.942;2023-05-07T11:37:24;101126.72;;;25.04;36.41
74370;BME280;62805;44.644;10.942;2023-05-07T11:39:50;101137.59;;;25.26;37.74
74370;BME280;62805;44.644;10.942;2023-05-07T11:44:55;101137.31;;;25.31;36.26
74370;BME280;62805;44.644;10.942;2023-05-07T11:47:21;101134.66;;;25.38;35.13
74370;BME280;62805;44.644;10.942;2023-05-07T11:49:47;101132.16;;;25.53;37.29
74370;BME280;62805;44.644;10.942;2023-05-07T11:52:13;101123.69;;;25.60;33.58
74370;BME280;62805;44.644;10.942;2023-05-07T11:54:39;101131.69;;;25.82;32.27
74370;BME280;62805;44.644;10.942;2023-05-07T11:57:04;101128.97;;;26.04;34.09
74370;BME280;62805;44.644;10.942;2023-05-07T11:59:38;101127.47;;;25.95;36.37
74370;BME280;62805;44.644;10.942;2023-05-07T12:02:06;101118.31;;;26.24;35.38
74370;BME280;62805;44.644;10.942;2023-05-07T12:04:31;101115.31;;;26.36;33.84
74370;BME280;62805;44.644;10.942;2023-05-07T12:06:56;101115.63;;;26.50;35.34
74370;BME280;62805;44.644;10.942;2023-05-07T12:09:22;101116.38;;;26.12;36.04
74370;BME280;62805;44.644;10.942;2023-05-07T12:11:47;101115.31;;;26.55;36.08
74370;BME280;62805;44.644;10.942;2023-05-07T12:14:13;101112.56;;;26.43;36.26
74370;BME280;62805;44.644;10.942;2023-05-07T12:16:39;101113.03;;;26.64;36.72
74370;BME280;62805;44.644;10.942;2023-05-07T12:19:06;101106.69;;;26.74;36.60
74370;BME280;62805;44.644;10.942;2023-05-07T12:21:34;101112.31;;;26.67;37.97
74370;BME280;62805;44.644;10.942;2023-05-07T12:24:01;101106.44;;;26.64;37.90
74370;BME280;62805;44.644;10.942;2023-05-07T12:26:26;101105.66;;;26.67;39.27
74370;BME280;62805;44.644;10.942;2023-05-07T12:28:52;101106.50;;;26.86;39.21
74370;BME280;62805;44.644;10.942;2023-05-07T12:31:17;101101.38;;;26.76;39.47
74370;BME280;62805;44.644;10.942;2023-05-07T12:33:43;101107.69;;;26.47;39.19
74370;BME280;62805;44.644;10.942;2023-05-07T12:36:09;101099.34;;;26.61;39.65
74370;BME280;62805;44.644;10.942;2023-05-07T12:38:35;101102.69;;;26.63;38.41
74370;BME280;62805;44.644;10.942;2023-05-07T12:41:01;101101.50;;;26.83;36.90
74370;BME280;62805;44.644;10.942;2023-05-07T12:43:28;101104.00;;;27.26;36.70
74370;BME280;62805;44.644;10.942;2023-05-07T12:45:57;101109.75;;;27.04;36.17
74370;BME280;62805;44.644;10.942;2023-05-07T12:48:24;101102.25;;;27.22;36.64
74370;BME280;62805;44.644;10.942;2023-05-07T12:50:55;101112.13;;;27.21;35.75
74370;BME280;62805;44.644;10.942;2023-05-07T12:53:22;101105.53;;;27.20;36.24
74370;BME280;62805;44.644;10.942;2023-05-07T12:55:49;101103.50;;;27.43;36.70